createdAt,value
2023-01-10T00:00:34.926Z,1.17
2023-01-10T00:01:37.766Z,1.48
2023-01-10T00:02:39.638Z,1.08
2023-01-10T00:03:42.345Z,3.50
2023-01-10T00:04:44.124Z,2.00
2023-01-10T00:05:47.576Z,2.03
2023-01-10T00:06:49.380Z,3.72
2023-01-10T00:07:52.074Z,1.20
2023-01-10T00:08:53.874Z,1.50
2023-01-10T00:09:56.564Z,1.40
2023-01-10T00:10:58.241Z,0.60
2023-01-10T00:12:18.358Z,0.68
2023-01-10T00:13:25.221Z,2.40
2023-01-10T00:14:28.703Z,1.77
2023-01-10T00:15:33.315Z,1.15
2023-01-10T00:16:37.089Z,1.65
2023-01-10T00:17:40.331Z,0.43
2023-01-10T00:18:42.017Z,0.98
2023-01-10T00:19:44.666Z,0.70
2023-01-10T00:20:49.861Z,0.60
2023-01-10T00:21:55.009Z,1.95
2023-01-10T00:22:57.215Z,0.70
2023-01-10T00:24:13.651Z,0.98
2023-01-10T00:25:15.358Z,3.70
2023-01-10T00:26:18.145Z,1.75
2023-01-10T00:27:22.672Z,1.10
2023-01-10T00:28:26.775Z,0.63
2023-01-10T00:29:30.909Z,0.70
2023-01-10T00:30:35.227Z,0.88
2023-01-10T00:31:36.986Z,0.50
2023-01-10T00:32:39.730Z,2.90
2023-01-10T00:33:41.544Z,0.82
2023-01-10T00:34:44.304Z,1.48
2023-01-10T00:35:46.068Z,0.52
2023-01-10T00:36:48.911Z,0.68
2023-01-10T00:37:52.142Z,1.02
2023-01-10T00:38:53.962Z,0.60
2023-01-10T00:39:56.619Z,0.32
2023-01-10T00:40:58.279Z,2.53
2023-01-10T00:42:18.325Z,1.55
2023-01-10T00:43:38.715Z,1.58
2023-01-10T00:44:42.901Z,0.40
2023-01-10T00:45:44.969Z,0.60
2023-01-10T00:46:47.696Z,1.80
2023-01-10T00:47:49.395Z,2.95
2023-01-10T00:48:52.024Z,0.70
2023-01-10T00:49:53.849Z,1.38
2023-01-10T00:50:56.861Z,1.55
2023-01-10T00:51:59.664Z,0.98
2023-01-10T00:53:02.300Z,0.95
2023-01-10T00:54:04.495Z,1.73
2023-01-10T00:55:08.451Z,0.45
2023-01-10T00:56:10.152Z,1.42
2023-01-10T00:57:12.829Z,0.35
2023-01-10T00:58:15.151Z,0.85
2023-01-10T00:59:17.849Z,0.57
2023-01-10T01:00:22.089Z,1.38
2023-01-10T01:01:25.686Z,0.70
2023-01-10T01:02:28.590Z,1.63
2023-01-10T01:03:30.365Z,0.50
2023-01-10T01:04:34.432Z,2.83
2023-01-10T01:05:40.577Z,1.70
2023-01-10T01:06:44.578Z,0.98
2023-01-10T01:07:49.116Z,0.63
2023-01-10T01:08:50.814Z,0.63
2023-01-10T01:10:11.280Z,2.45
2023-01-10T01:11:14.128Z,0.90
2023-01-10T01:12:16.070Z,0.50
2023-01-10T01:13:20.069Z,2.22
2023-01-10T01:14:25.205Z,2.03
2023-01-10T01:15:28.298Z,1.25
2023-01-10T01:16:30.980Z,1.65
2023-01-10T01:17:32.735Z,1.33
2023-01-10T01:18:35.473Z,1.17
2023-01-10T01:19:37.186Z,0.60
2023-01-10T01:20:40.510Z,1.88
2023-01-10T01:21:42.221Z,1.13
2023-01-10T01:22:45.019Z,2.05
2023-01-10T01:23:47.007Z,0.45
2023-01-10T01:24:49.697Z,2.28
2023-01-10T01:25:51.888Z,0.52
2023-01-10T01:26:54.701Z,1.02
2023-01-10T01:27:56.383Z,1.02
2023-01-10T01:28:59.096Z,1.02
2023-01-10T01:30:00.908Z,1.48
2023-01-10T01:31:09.883Z,0.70
2023-01-10T01:32:12.089Z,2.58
2023-01-10T01:33:15.017Z,0.55
2023-01-10T01:34:16.730Z,1.30
2023-01-10T01:35:19.591Z,0.47
2023-01-10T01:36:21.265Z,0.68
2023-01-10T01:37:23.958Z,3.65
2023-01-10T01:38:25.833Z,0.55
2023-01-10T01:39:28.498Z,1.30
2023-01-10T01:40:30.225Z,0.75
2023-01-10T01:41:50.313Z,0.80
2023-01-10T01:42:55.691Z,0.45
2023-01-10T01:44:02.830Z,0.80
2023-01-10T01:45:36.774Z,0.32
2023-01-10T01:46:41.033Z,0.77
2023-01-10T01:47:46.341Z,0.85
2023-01-10T01:48:48.089Z,0.38
2023-01-10T01:49:50.767Z,3.47
2023-01-10T01:50:59.278Z,0.20
2023-01-10T01:52:04.941Z,1.00
2023-01-10T01:53:10.719Z,0.68
2023-01-10T01:54:14.115Z,0.80
2023-01-10T01:55:15.916Z,0.85
2023-01-10T01:56:21.694Z,0.70
2023-01-10T01:57:25.605Z,0.40
2023-01-10T01:58:33.531Z,2.38
2023-01-10T01:59:37.729Z,0.60
2023-01-10T02:00:42.877Z,0.65
2023-01-10T02:01:49.067Z,0.20
2023-01-10T02:03:02.537Z,0.60
2023-01-10T02:04:11.428Z,0.20
2023-01-10T02:05:15.450Z,0.30
2023-01-10T02:06:19.787Z,0.77
2023-01-10T02:07:22.843Z,0.63
2023-01-10T02:08:25.529Z,0.20
2023-01-10T02:09:30.616Z,0.22
2023-01-10T02:10:38.191Z,0.30
2023-01-10T02:11:39.906Z,2.65
2023-01-10T02:12:43.134Z,0.20
2023-01-10T02:13:45.595Z,1.65
2023-01-10T02:14:50.770Z,0.68
2023-01-10T02:15:52.576Z,1.88
2023-01-10T02:16:56.755Z,0.50
2023-01-10T02:18:00.683Z,0.10
2023-01-10T02:19:03.549Z,0.88
2023-01-10T02:20:07.154Z,0.20
2023-01-10T02:21:33.505Z,0.82
2023-01-10T02:23:06.996Z,1.13
2023-01-10T02:24:27.007Z,1.02
2023-01-10T02:26:12.355Z,0.95
2023-01-10T02:27:20.403Z,0.20
2023-01-10T02:29:01.080Z,1.75
2023-01-10T02:30:22.995Z,2.28
2023-01-10T02:33:11.200Z,2.60
2023-01-10T02:34:17.037Z,0.32
2023-01-10T02:35:30.072Z,2.47
2023-01-10T02:36:39.938Z,2.63
2023-01-10T02:37:46.739Z,0.28
2023-01-10T02:38:56.037Z,1.85
2023-01-10T02:40:00.163Z,0.43
2023-01-10T02:41:08.489Z,2.05
2023-01-10T02:42:13.893Z,1.80
2023-01-10T02:43:19.379Z,0.75
2023-01-10T02:44:25.232Z,2.65
2023-01-10T02:45:30.864Z,3.05
2023-01-10T02:46:34.065Z,1.58
2023-01-10T02:47:37.053Z,0.43
2023-01-10T02:48:40.081Z,1.27
2023-01-10T02:49:44.108Z,0.40
2023-01-10T02:50:59.809Z,0.20
2023-01-10T02:52:02.576Z,2.13
2023-01-10T02:53:07.374Z,0.73
2023-01-10T02:54:12.385Z,1.85
2023-01-10T02:55:14.249Z,1.60
2023-01-10T02:56:29.958Z,1.73
2023-01-10T02:57:44.132Z,0.77
2023-01-10T02:58:59.507Z,0.10
2023-01-10T03:00:18.274Z,3.15
2023-01-10T03:01:24.781Z,0.73
2023-01-10T03:02:37.329Z,0.60
2023-01-10T03:03:45.616Z,1.25
2023-01-10T03:04:54.200Z,0.75
2023-01-10T03:06:07.886Z,3.20
2023-01-10T03:07:18.468Z,1.55
2023-01-10T03:08:27.848Z,2.13
2023-01-10T03:09:34.364Z,1.00
2023-01-10T03:10:41.395Z,0.50
2023-01-10T03:11:45.477Z,2.47
2023-01-10T03:12:51.815Z,3.15
2023-01-10T03:13:57.900Z,0.98
2023-01-10T03:15:01.684Z,0.82
2023-01-10T03:16:05.905Z,0.95
2023-01-10T03:17:11.428Z,0.38
2023-01-10T03:18:18.529Z,1.33
2023-01-10T03:19:24.378Z,3.70
2023-01-10T03:20:27.206Z,1.52
2023-01-10T03:21:32.225Z,1.83
2023-01-10T03:22:35.724Z,0.70
2023-01-10T03:23:39.278Z,1.80
2023-01-10T03:24:44.276Z,0.90
2023-01-10T03:25:46.915Z,1.95
2023-01-10T03:26:53.975Z,1.58
2023-01-10T03:27:58.904Z,1.80
2023-01-10T03:29:05.983Z,1.90
2023-01-10T03:30:15.385Z,0.68
2023-01-10T03:31:21.178Z,3.05
2023-01-10T03:32:25.875Z,0.60
2023-01-10T03:33:30.093Z,0.95
2023-01-10T03:34:33.519Z,0.90
2023-01-10T03:35:44.754Z,1.20
2023-01-10T03:36:50.606Z,3.70
2023-01-10T03:37:57.183Z,1.75
2023-01-10T03:39:05.347Z,2.75
2023-01-10T03:40:10.782Z,1.67
2023-01-10T03:41:14.926Z,1.92
2023-01-10T03:42:21.697Z,2.08
2023-01-10T03:43:47.362Z,2.53
2023-01-10T03:44:53.681Z,2.28
2023-01-10T03:45:59.016Z,4.18
2023-01-10T03:47:07.085Z,1.23
2023-01-10T03:48:11.420Z,5.05
2023-01-10T03:49:14.833Z,3.53
2023-01-10T03:50:20.415Z,1.35
2023-01-10T03:51:23.115Z,0.50
2023-01-10T03:52:25.203Z,3.13
2023-01-10T03:53:28.045Z,1.45
2023-01-10T03:54:29.788Z,0.98
2023-01-10T03:55:33.043Z,1.23
2023-01-10T03:56:44.310Z,1.20
2023-01-10T03:57:47.379Z,1.13
2023-01-10T03:58:49.085Z,2.58
2023-01-10T03:59:54.803Z,4.18
2023-01-10T04:00:56.678Z,2.50
2023-01-10T04:01:59.587Z,0.80
2023-01-10T04:03:01.556Z,1.13
2023-01-10T04:04:04.560Z,1.10
2023-01-10T04:05:06.941Z,3.83
2023-01-10T04:06:11.108Z,0.65
2023-01-10T04:07:12.843Z,5.38
2023-01-10T04:08:15.501Z,2.78
2023-01-10T04:09:17.205Z,1.43
2023-01-10T04:10:21.052Z,1.27
2023-01-10T04:11:22.820Z,3.63
2023-01-10T04:12:25.593Z,3.38
2023-01-10T04:13:27.297Z,2.58
2023-01-10T04:14:32.596Z,2.15
2023-01-10T04:15:35.263Z,1.50
2023-01-10T04:16:37.019Z,3.93
2023-01-10T04:17:39.814Z,1.80
2023-01-10T04:18:41.485Z,3.13
2023-01-10T04:19:44.288Z,3.50
2023-01-10T04:20:45.985Z,1.35
2023-01-10T04:21:50.000Z,4.87
2023-01-10T04:22:51.702Z,1.33
2023-01-10T04:23:54.442Z,1.85
2023-01-10T04:24:56.207Z,2.97
2023-01-10T04:25:58.868Z,2.97
2023-01-10T04:27:00.614Z,2.03
2023-01-10T04:28:03.404Z,1.30
2023-01-10T04:29:06.018Z,5.70
2023-01-10T04:30:09.731Z,2.20
2023-01-10T04:31:11.500Z,2.05
2023-01-10T04:32:14.352Z,3.22
2023-01-10T04:33:16.001Z,4.07
2023-01-10T04:34:20.216Z,4.90
2023-01-10T04:35:21.948Z,9.50
2023-01-10T04:36:24.697Z,5.35
2023-01-10T04:37:27.696Z,1.58
2023-01-10T04:38:30.391Z,1.08
2023-01-10T04:39:33.068Z,3.40
2023-01-10T04:40:34.783Z,1.48
2023-01-10T04:41:37.464Z,2.05
2023-01-10T04:42:39.142Z,6.25
2023-01-10T04:43:41.806Z,2.30
2023-01-10T04:44:43.575Z,5.53
2023-01-10T04:45:46.242Z,2.00
2023-01-10T04:46:47.945Z,3.90
2023-01-10T04:47:51.608Z,4.22
2023-01-10T04:48:53.349Z,7.37
2023-01-10T04:49:56.064Z,3.72
2023-01-10T04:50:57.749Z,1.50
2023-01-10T04:52:00.439Z,6.13
2023-01-10T04:53:03.489Z,2.05
2023-01-10T04:54:06.676Z,4.30
2023-01-10T04:55:09.069Z,1.90
2023-01-10T04:56:17.317Z,4.78
2023-01-10T04:57:19.974Z,2.25
2023-01-10T04:58:21.685Z,2.92
2023-01-10T04:59:24.466Z,2.15
2023-01-10T05:00:26.186Z,2.63
2023-01-10T05:01:28.897Z,3.50
2023-01-10T05:02:30.785Z,4.28
2023-01-10T05:03:33.570Z,5.13
2023-01-10T05:04:36.226Z,0.80
2023-01-10T05:05:38.376Z,1.38
2023-01-10T05:06:41.080Z,0.88
2023-01-10T05:07:45.960Z,2.70
2023-01-10T05:08:50.098Z,1.15
2023-01-10T05:09:51.812Z,5.88
2023-01-10T05:10:54.478Z,3.05
2023-01-10T05:11:56.125Z,4.00
2023-01-10T05:12:58.743Z,3.63
2023-01-10T05:14:00.558Z,3.40
2023-01-10T05:15:03.248Z,3.00
2023-01-10T05:16:05.538Z,3.05
2023-01-10T05:17:08.193Z,2.83
2023-01-10T05:18:09.922Z,3.42
2023-01-10T05:19:13.177Z,2.25
2023-01-10T05:20:14.881Z,1.23
2023-01-10T05:21:17.769Z,2.17
2023-01-10T05:22:19.438Z,5.53
2023-01-10T05:23:22.218Z,4.57
2023-01-10T05:24:25.340Z,1.25
2023-01-10T05:25:27.971Z,2.20
2023-01-10T05:26:29.646Z,2.45
2023-01-10T05:27:32.301Z,1.50
2023-01-10T05:28:34.081Z,0.73
2023-01-10T05:29:36.865Z,8.93
2023-01-10T05:30:38.544Z,3.50
2023-01-10T05:31:41.732Z,5.00
2023-01-10T05:32:43.527Z,5.53
2023-01-10T05:33:46.660Z,2.35
2023-01-10T05:34:49.059Z,4.13
2023-01-10T05:35:51.760Z,2.83
2023-01-10T05:36:53.513Z,2.25
2023-01-10T05:37:56.217Z,3.57
2023-01-10T05:38:57.888Z,3.15
2023-01-10T05:40:01.935Z,3.53
2023-01-10T05:41:03.752Z,3.50
2023-01-10T05:42:06.786Z,5.80
2023-01-10T05:43:08.510Z,1.20
2023-01-10T05:44:11.234Z,6.50
2023-01-10T05:45:14.005Z,11.48
2023-01-10T05:46:15.868Z,3.53
2023-01-10T05:47:18.588Z,7.22
2023-01-10T05:48:20.344Z,7.97
2023-01-10T05:49:22.983Z,3.92
2023-01-10T05:50:24.770Z,3.08
2023-01-10T05:51:27.621Z,3.87
2023-01-10T05:52:29.497Z,3.00
2023-01-10T05:53:32.214Z,3.47
2023-01-10T05:54:33.946Z,4.82
2023-01-10T05:55:37.983Z,3.28
2023-01-10T05:56:39.794Z,5.07
2023-01-10T05:57:42.495Z,6.25
2023-01-10T05:58:47.069Z,2.38
2023-01-10T05:59:49.954Z,1.85
2023-01-10T06:00:51.706Z,6.03
2023-01-10T06:01:54.435Z,1.85
2023-01-10T06:02:56.580Z,3.30
2023-01-10T06:04:00.787Z,3.67
2023-01-10T06:05:02.551Z,4.63
2023-01-10T06:06:05.621Z,4.55
2023-01-10T06:07:07.322Z,4.38
2023-01-10T06:08:11.065Z,3.08
2023-01-10T06:09:12.745Z,6.55
2023-01-10T06:10:15.808Z,5.18
2023-01-10T06:11:18.905Z,4.35
2023-01-10T06:12:21.734Z,4.57
2023-01-10T06:13:23.528Z,5.00
2023-01-10T06:14:26.173Z,2.75
2023-01-10T06:15:28.178Z,5.93
2023-01-10T06:16:30.885Z,7.63
2023-01-10T06:17:32.609Z,2.78
2023-01-10T06:18:35.284Z,5.95
2023-01-10T06:19:37.180Z,8.63
2023-01-10T06:20:39.881Z,7.22
2023-01-10T06:21:41.554Z,5.30
2023-01-10T06:22:44.666Z,2.65
2023-01-10T06:23:46.301Z,2.35
2023-01-10T06:24:48.938Z,5.35
2023-01-10T06:25:51.613Z,3.67
2023-01-10T06:26:54.781Z,9.00
2023-01-10T06:27:57.551Z,7.07
2023-01-10T06:28:59.657Z,5.78
2023-01-10T06:30:02.321Z,6.00
2023-01-10T06:31:04.342Z,4.03
2023-01-10T06:32:07.150Z,6.93
2023-01-10T06:33:10.614Z,2.63
2023-01-10T06:34:13.369Z,6.78
2023-01-10T06:35:15.195Z,8.13
2023-01-10T06:36:17.924Z,4.93
2023-01-10T06:37:20.577Z,5.32
2023-01-10T06:38:22.294Z,5.18
2023-01-10T06:39:25.042Z,5.32
2023-01-10T06:40:27.398Z,4.28
2023-01-10T06:41:30.033Z,3.75
2023-01-10T06:42:33.190Z,5.43
2023-01-10T06:43:35.920Z,8.85
2023-01-10T06:44:37.673Z,6.30
2023-01-10T06:45:40.374Z,4.05
2023-01-10T06:46:43.162Z,7.18
2023-01-10T06:47:45.099Z,2.83
2023-01-10T06:48:47.944Z,4.05
2023-01-10T06:49:49.653Z,10.48
2023-01-10T06:50:52.332Z,6.22
2023-01-10T06:51:54.073Z,6.47
2023-01-10T06:52:57.983Z,3.25
2023-01-10T06:53:59.701Z,4.38
2023-01-10T06:55:02.349Z,4.97
2023-01-10T06:56:05.978Z,5.72
2023-01-10T06:57:09.225Z,3.10
2023-01-10T06:58:12.293Z,2.80
2023-01-10T06:59:15.012Z,1.55
2023-01-10T07:00:17.813Z,2.72
2023-01-10T07:01:22.071Z,5.40
2023-01-10T07:02:24.929Z,4.63
2023-01-10T07:03:26.689Z,5.72
2023-01-10T07:04:29.365Z,6.72
2023-01-10T07:05:31.115Z,7.10
2023-01-10T07:06:37.803Z,3.00
2023-01-10T07:07:39.586Z,3.30
2023-01-10T07:08:43.875Z,3.72
2023-01-10T07:09:46.548Z,5.88
2023-01-10T07:10:48.263Z,4.65
2023-01-10T07:11:51.087Z,3.55
2023-01-10T07:12:55.619Z,2.95
2023-01-10T07:13:59.628Z,4.22
2023-01-10T07:15:01.314Z,5.60
2023-01-10T07:16:04.596Z,3.03
2023-01-10T07:17:06.314Z,2.38
2023-01-10T07:18:10.747Z,3.80
2023-01-10T07:19:17.164Z,4.93
2023-01-10T07:20:19.374Z,5.50
2023-01-10T07:21:22.177Z,3.60
2023-01-10T07:22:24.906Z,4.88
2023-01-10T07:23:26.678Z,3.63
2023-01-10T07:24:29.328Z,4.35
2023-01-10T07:25:31.538Z,5.15
2023-01-10T07:26:34.308Z,3.50
2023-01-10T07:27:36.145Z,3.15
2023-01-10T07:28:40.332Z,5.40
2023-01-10T07:29:44.395Z,10.80
2023-01-10T07:30:46.041Z,6.55
2023-01-10T07:31:48.705Z,4.07
2023-01-10T07:32:54.060Z,5.28
2023-01-10T07:33:56.784Z,4.90
2023-01-10T07:34:59.440Z,4.40
2023-01-10T07:36:02.526Z,4.32
2023-01-10T07:37:05.246Z,6.07
2023-01-10T07:38:09.108Z,4.47
2023-01-10T07:39:11.118Z,7.47
2023-01-10T07:40:14.271Z,4.40
2023-01-10T07:41:16.084Z,4.40
2023-01-10T07:42:18.856Z,15.07
2023-01-10T07:43:20.767Z,7.75
2023-01-10T07:44:24.183Z,8.20
2023-01-10T07:45:28.791Z,7.20
2023-01-10T07:46:31.512Z,5.60
2023-01-10T07:47:33.224Z,3.13
2023-01-10T07:48:36.317Z,8.38
2023-01-10T07:49:38.073Z,4.63
2023-01-10T07:50:41.077Z,9.30
2023-01-10T07:51:43.815Z,4.70
2023-01-10T07:52:45.504Z,3.58
2023-01-10T07:53:48.147Z,6.40
2023-01-10T07:54:50.875Z,6.60
2023-01-10T07:55:52.709Z,5.35
2023-01-10T07:56:55.428Z,8.93
2023-01-10T07:57:57.121Z,5.35
2023-01-10T07:59:01.212Z,3.20
2023-01-10T08:00:04.989Z,4.45
2023-01-10T08:01:09.107Z,7.70
2023-01-10T08:02:11.301Z,8.98
2023-01-10T08:03:14.527Z,12.38
2023-01-10T08:04:17.253Z,10.90
2023-01-10T08:05:18.966Z,11.30
2023-01-10T08:06:21.652Z,10.68
2023-01-10T08:07:23.416Z,8.23
2023-01-10T08:08:26.096Z,4.93
2023-01-10T08:09:29.200Z,8.75
2023-01-10T08:10:35.168Z,12.07
2023-01-10T08:11:36.920Z,10.38
2023-01-10T08:12:39.657Z,7.47
2023-01-10T08:13:41.451Z,9.13
2023-01-10T08:14:44.113Z,9.45
2023-01-10T08:15:47.277Z,12.05
2023-01-10T08:16:51.675Z,5.25
2023-01-10T08:17:53.939Z,8.18
2023-01-10T08:18:56.751Z,9.07
2023-01-10T08:19:58.401Z,5.78
2023-01-10T08:21:02.048Z,4.32
2023-01-10T08:22:03.765Z,7.32
2023-01-10T08:23:06.434Z,6.38
2023-01-10T08:24:09.471Z,7.10
2023-01-10T08:25:11.329Z,8.85
2023-01-10T08:26:14.074Z,6.80
2023-01-10T08:27:16.804Z,4.57
2023-01-10T08:28:19.564Z,6.97
2023-01-10T08:29:21.289Z,4.65
2023-01-10T08:30:24.375Z,12.60
2023-01-10T08:31:29.418Z,7.07
2023-01-10T08:32:33.544Z,8.50
2023-01-10T08:33:36.916Z,9.52
2023-01-10T08:34:39.594Z,4.78
2023-01-10T08:35:44.488Z,10.52
2023-01-10T08:36:50.988Z,7.25
2023-01-10T08:37:53.830Z,6.15
2023-01-10T08:38:57.198Z,10.80
2023-01-10T08:39:58.877Z,8.05
2023-01-10T08:41:01.555Z,10.23
2023-01-10T08:42:03.377Z,4.93
2023-01-10T08:43:08.211Z,9.00
2023-01-10T08:44:12.023Z,6.57
2023-01-10T08:45:14.748Z,13.70
2023-01-10T08:46:17.673Z,5.95
2023-01-10T08:47:20.595Z,6.65
2023-01-10T08:48:24.635Z,5.90
2023-01-10T08:49:26.397Z,6.70
2023-01-10T08:50:29.090Z,8.88
2023-01-10T08:51:31.009Z,7.15
2023-01-10T08:52:33.778Z,15.60
2023-01-10T08:53:35.649Z,5.38
2023-01-10T08:54:38.350Z,4.75
2023-01-10T08:55:41.087Z,11.20
2023-01-10T08:56:42.813Z,9.65
2023-01-10T08:57:45.530Z,8.65
2023-01-10T08:58:48.274Z,6.20
2023-01-10T08:59:51.015Z,4.30
2023-01-10T09:00:53.705Z,8.38
2023-01-10T09:01:58.340Z,9.55
2023-01-10T09:03:01.176Z,7.30
2023-01-10T09:04:05.429Z,9.57
2023-01-10T09:05:15.092Z,9.68
2023-01-10T09:06:25.201Z,7.50
2023-01-10T09:07:27.993Z,6.55
2023-01-10T09:08:30.691Z,10.10
2023-01-10T09:09:33.393Z,5.80
2023-01-10T09:10:36.129Z,7.28
2023-01-10T09:11:37.901Z,6.32
2023-01-10T09:12:55.880Z,6.53
2023-01-10T09:13:58.593Z,10.95
2023-01-10T09:15:01.242Z,12.93
2023-01-10T09:16:04.792Z,13.90
2023-01-10T09:17:07.682Z,12.13
2023-01-10T09:18:12.606Z,11.70
2023-01-10T09:19:16.637Z,7.55
2023-01-10T09:20:18.466Z,8.20
2023-01-10T09:21:21.177Z,9.93
2023-01-10T09:22:23.893Z,7.32
2023-01-10T09:23:26.737Z,12.02
2023-01-10T09:24:28.422Z,4.07
2023-01-10T09:25:31.160Z,8.40
2023-01-10T09:26:33.849Z,5.93
2023-01-10T09:27:35.577Z,7.55
2023-01-10T09:28:38.402Z,6.53
2023-01-10T09:29:41.037Z,4.80
2023-01-10T09:30:44.328Z,8.07
2023-01-10T09:31:47.060Z,7.82
2023-01-10T09:32:50.275Z,6.10
2023-01-10T09:33:52.957Z,5.40
2023-01-10T09:34:56.041Z,2.28
2023-01-10T09:35:59.034Z,9.40
2023-01-10T09:37:01.700Z,3.97
2023-01-10T09:38:04.543Z,7.07
2023-01-10T09:39:07.270Z,4.43
2023-01-10T09:40:10.503Z,5.32
2023-01-10T09:41:29.550Z,14.70
2023-01-10T09:42:44.026Z,8.02
2023-01-10T09:43:56.095Z,6.72
2023-01-10T09:45:04.987Z,3.70
2023-01-10T09:46:11.823Z,8.65
2023-01-10T09:47:22.748Z,6.05
